sensor_id;sensor_type;location;lat;lon;timestamp;P1;durP1;ratioP1;P2;durP2;ratioP2
59336;SDS011;45115;52.002;4.686;2022-09-23T00:02:00;17.40;;;10.85;;
59336;SDS011;45115;52.002;4.686;2022-09-23T00:04:27;19.02;;;12.88;;
59336;SDS011;45115;52.002;4.686;2022-09-23T00:06:54;17.15;;;11.55;;
59336;SDS011;45115;52.002;4.686;2022-09-23T00:09:21;18.65;;;12.38;;
59336;SDS011;45115;52.002;4.686;2022-09-23T00:11:48;19.45;;;12.07;;
59336;SDS011;45115;52.002;4.686;2022-09-23T00:14:15;17.13;;;11.52;;
59336;SDS011;45115;52.002;4.686;2022-09-23T00:16:44;17.92;;;11.55;;
59336;SDS011;45115;52.002;4.686;2022-09-23T00:19:11;17.92;;;12.05;;
59336;SDS011;45115;52.002;4.686;2022-09-23T00:21:37;24.05;;;13.27;;
59336;SDS011;45115;52.002;4.686;2022-09-23T00:24:04;18.92;;;12.68;;
59336;SDS011;45115;52.002;4.686;2022-09-23T00:26:32;19.05;;;11.77;;
59336;SDS011;45115;52.002;4.686;2022-09-23T00:28:59;20.50;;;12.05;;
59336;SDS011;45115;52.002;4.686;2022-09-23T00:31:25;18.40;;;11.65;;
59336;SDS011;45115;52.002;4.686;2022-09-23T00:33:54;20.40;;;11.40;;
59336;SDS011;45115;52.002;4.686;2022-09-23T00:36:22;18.70;;;11.45;;
59336;SDS011;45115;52.002;4.686;2022-09-23T00:38:52;19.63;;;12.15;;
59336;SDS011;45115;52.002;4.686;2022-09-23T00:41:19;19.30;;;11.90;;
59336;SDS011;45115;52.002;4.686;2022-09-23T00:43:47;19.20;;;11.93;;
59336;SDS011;45115;52.002;4.686;2022-09-23T00:46:16;20.42;;;11.95;;
59336;SDS011;45115;52.002;4.686;2022-09-23T00:48:45;18.55;;;11.35;;
59336;SDS011;45115;52.002;4.686;2022-09-23T00:51:17;17.00;;;11.20;;
59336;SDS011;45115;52.002;4.686;2022-09-23T00:53:48;17.08;;;11.25;;
59336;SDS011;45115;52.002;4.686;2022-09-23T00:56:17;19.15;;;11.57;;
59336;SDS011;45115;52.002;4.686;2022-09-23T00:58:46;17.77;;;11.63;;
59336;SDS011;45115;52.002;4.686;2022-09-23T01:01:14;17.40;;;11.38;;
59336;SDS011;45115;52.002;4.686;2022-09-23T01:03:42;18.40;;;12.77;;
59336;SDS011;45115;52.002;4.686;2022-09-23T01:06:10;19.20;;;12.25;;
59336;SDS011;45115;52.002;4.686;2022-09-23T01:08:39;20.17;;;13.15;;
59336;SDS011;45115;52.002;4.686;2022-09-23T01:11:10;19.73;;;13.38;;
59336;SDS011;45115;52.002;4.686;2022-09-23T01:13:46;18.05;;;11.88;;
59336;SDS011;45115;52.002;4.686;2022-09-23T01:16:23;19.50;;;12.35;;
59336;SDS011;45115;52.002;4.686;2022-09-23T01:18:56;16.85;;;11.00;;
59336;SDS011;45115;52.002;4.686;2022-09-23T01:21:34;18.48;;;11.95;;
59336;SDS011;45115;52.002;4.686;2022-09-23T01:24:24;16.77;;;11.00;;
59336;SDS011;45115;52.002;4.686;2022-09-23T01:27:04;18.60;;;12.13;;
59336;SDS011;45115;52.002;4.686;2022-09-23T01:29:42;17.83;;;11.65;;
59336;SDS011;45115;52.002;4.686;2022-09-23T01:32:33;19.08;;;10.98;;
59336;SDS011;45115;52.002;4.686;2022-09-23T01:35:06;15.90;;;10.13;;
59336;SDS011;45115;52.002;4.686;2022-09-23T01:37:42;19.20;;;12.40;;
59336;SDS011;45115;52.002;4.686;2022-09-23T01:40:15;20.58;;;13.88;;
59336;SDS011;45115;52.002;4.686;2022-09-23T01:42:45;17.15;;;11.30;;
59336;SDS011;45115;52.002;4.686;2022-09-23T01:45:18;18.52;;;11.85;;
59336;SDS011;45115;52.002;4.686;2022-09-23T01:47:52;20.42;;;11.70;;
59336;SDS011;45115;52.002;4.686;2022-09-23T01:50:23;16.80;;;10.57;;
59336;SDS011;45115;52.002;4.686;2022-09-23T01:53:27;19.90;;;12.57;;
59336;SDS011;45115;52.002;4.686;2022-09-23T01:56:02;20.75;;;12.05;;
59336;SDS011;45115;52.002;4.686;2022-09-23T01:58:37;18.67;;;12.25;;
59336;SDS011;45115;52.002;4.686;2022-09-23T02:01:07;18.88;;;13.18;;
59336;SDS011;45115;52.002;4.686;2022-09-23T02:03:42;18.55;;;12.15;;
59336;SDS011;45115;52.002;4.686;2022-09-23T02:06:15;19.90;;;12.90;;
59336;SDS011;45115;52.002;4.686;2022-09-23T02:08:48;18.70;;;12.20;;
59336;SDS011;45115;52.002;4.686;2022-09-23T02:11:18;22.52;;;13.38;;
59336;SDS011;45115;52.002;4.686;2022-09-23T02:13:47;20.75;;;12.73;;
59336;SDS011;45115;52.002;4.686;2022-09-23T02:16:21;19.88;;;12.55;;
59336;SDS011;45115;52.002;4.686;2022-09-23T02:18:56;21.60;;;14.27;;
59336;SDS011;45115;52.002;4.686;2022-09-23T02:21:28;19.33;;;11.65;;
59336;SDS011;45115;52.002;4.686;2022-09-23T02:24:01;19.35;;;12.65;;
59336;SDS011;45115;52.002;4.686;2022-09-23T02:26:34;20.48;;;12.10;;
59336;SDS011;45115;52.002;4.686;2022-09-23T02:29:10;20.58;;;12.68;;
59336;SDS011;45115;52.002;4.686;2022-09-23T02:31:44;19.98;;;13.32;;
59336;SDS011;45115;52.002;4.686;2022-09-23T02:34:22;19.88;;;12.40;;
59336;SDS011;45115;52.002;4.686;2022-09-23T02:37:02;18.25;;;12.30;;
59336;SDS011;45115;52.002;4.686;2022-09-23T02:39:35;20.25;;;13.60;;
59336;SDS011;45115;52.002;4.686;2022-09-23T02:42:11;19.25;;;12.60;;
59336;SDS011;45115;52.002;4.686;2022-09-23T02:44:41;20.80;;;12.55;;
59336;SDS011;45115;52.002;4.686;2022-09-23T02:47:07;18.75;;;12.00;;
59336;SDS011;45115;52.002;4.686;2022-09-23T02:49:36;20.27;;;12.77;;
59336;SDS011;45115;52.002;4.686;2022-09-23T02:52:03;20.42;;;12.55;;
59336;SDS011;45115;52.002;4.686;2022-09-23T02:54:31;18.73;;;11.63;;
59336;SDS011;45115;52.002;4.686;2022-09-23T02:57:00;19.27;;;12.18;;
59336;SDS011;45115;52.002;4.686;2022-09-23T02:59:29;19.05;;;11.73;;
59336;SDS011;45115;52.002;4.686;2022-09-23T03:05:09;19.25;;;12.20;;
59336;SDS011;45115;52.002;4.686;2022-09-23T03:07:48;19.20;;;12.75;;
59336;SDS011;45115;52.002;4.686;2022-09-23T03:10:24;17.70;;;11.27;;
59336;SDS011;45115;52.002;4.686;2022-09-23T03:12:59;19.33;;;12.00;;
59336;SDS011;45115;52.002;4.686;2022-09-23T03:15:36;17.38;;;11.25;;
59336;SDS011;45115;52.002;4.686;2022-09-23T03:18:08;17.42;;;10.73;;
59336;SDS011;45115;52.002;4.686;2022-09-23T03:20:43;19.95;;;11.52;;
59336;SDS011;45115;52.002;4.686;2022-09-23T03:23:15;20.30;;;12.25;;
59336;SDS011;45115;52.002;4.686;2022-09-23T03:25:47;18.38;;;11.50;;
59336;SDS011;45115;52.002;4.686;2022-09-23T03:28:18;17.20;;;11.23;;
59336;SDS011;45115;52.002;4.686;2022-09-23T03:30:46;15.02;;;9.68;;
59336;SDS011;45115;52.002;4.686;2022-09-23T03:33:15;14.57;;;9.55;;
59336;SDS011;45115;52.002;4.686;2022-09-23T03:35:47;16.90;;;10.93;;
59336;SDS011;45115;52.002;4.686;2022-09-23T03:38:42;14.52;;;9.50;;
59336;SDS011;45115;52.002;4.686;2022-09-23T03:43:41;16.27;;;8.60;;
59336;SDS011;45115;52.002;4.686;2022-09-23T03:46:09;15.02;;;8.85;;
59336;SDS011;45115;52.002;4.686;2022-09-23T03:48:36;16.35;;;10.23;;
59336;SDS011;45115;52.002;4.686;2022-09-23T03:51:07;14.68;;;9.05;;
59336;SDS011;45115;52.002;4.686;2022-09-23T03:53:45;13.95;;;8.60;;
59336;SDS011;45115;52.002;4.686;2022-09-23T03:56:12;15.48;;;9.27;;
59336;SDS011;45115;52.002;4.686;2022-09-23T03:58:39;13.98;;;8.68;;
59336;SDS011;45115;52.002;4.686;2022-09-23T04:01:05;15.50;;;8.60;;
59336;SDS011;45115;52.002;4.686;2022-09-23T04:03:33;16.00;;;8.93;;
59336;SDS011;45115;52.002;4.686;2022-09-23T04:06:00;16.60;;;9.18;;
59336;SDS011;45115;52.002;4.686;2022-09-23T04:08:28;16.95;;;10.65;;
59336;SDS011;45115;52.002;4.686;2022-09-23T04:10:57;16.27;;;10.23;;
59336;SDS011;45115;52.002;4.686;2022-09-23T04:13:25;16.58;;;9.52;;
59336;SDS011;45115;52.002;4.686;2022-09-23T04:15:53;15.88;;;10.20;;
59336;SDS011;45115;52.002;4.686;2022-09-23T04:18:20;16.88;;;10.90;;
59336;SDS011;45115;52.002;4.686;2022-09-23T04:20:48;15.00;;;9.30;;
59336;SDS011;45115;52.002;4.686;2022-09-23T04:23:15;16.58;;;10.80;;
59336;SDS011;45115;52.002;4.686;2022-09-23T04:25:46;16.17;;;9.35;;
59336;SDS011;45115;52.002;4.686;2022-09-23T04:28:14;16.35;;;10.05;;
59336;SDS011;45115;52.002;4.686;2022-09-23T04:30:41;16.77;;;10.30;;
59336;SDS011;45115;52.002;4.686;2022-09-23T04:33:10;17.35;;;11.00;;
59336;SDS011;45115;52.002;4.686;2022-09-23T04:35:37;16.35;;;9.75;;
59336;SDS011;45115;52.002;4.686;2022-09-23T04:38:07;12.90;;;8.55;;
59336;SDS011;45115;52.002;4.686;2022-09-23T04:40:35;13.70;;;9.25;;
59336;SDS011;45115;52.002;4.686;2022-09-23T04:43:03;18.08;;;10.05;;
59336;SDS011;45115;52.002;4.686;2022-09-23T04:45:30;17.13;;;8.98;;
59336;SDS011;45115;52.002;4.686;2022-09-23T04:47:56;14.15;;;9.18;;
59336;SDS011;45115;52.002;4.686;2022-09-23T04:50:24;14.93;;;8.95;;
59336;SDS011;45115;52.002;4.686;2022-09-23T04:52:51;13.80;;;8.43;;
59336;SDS011;45115;52.002;4.686;2022-09-23T04:55:18;13.00;;;8.40;;
59336;SDS011;45115;52.002;4.686;2022-09-23T04:57:45;13.35;;;8.70;;
59336;SDS011;45115;52.002;4.686;2022-09-23T05:00:13;15.60;;;10.02;;
59336;SDS011;45115;52.002;4.686;2022-09-23T05:02:41;14.70;;;8.95;;
59336;SDS011;45115;52.002;4.686;2022-09-23T05:05:09;12.68;;;7.72;;
59336;SDS011;45115;52.002;4.686;2022-09-23T05:07:36;13.82;;;8.43;;
59336;SDS011;45115;52.002;4.686;2022-09-23T05:10:03;14.30;;;8.93;;
59336;SDS011;45115;52.002;4.686;2022-09-23T05:12:30;16.17;;;9.30;;
59336;SDS011;45115;52.002;4.686;2022-09-23T05:14:57;14.65;;;9.00;;
59336;SDS011;45115;52.002;4.686;2022-09-23T05:17:26;15.55;;;8.77;;
59336;SDS011;45115;52.002;4.686;2022-09-23T05:19:53;14.95;;;8.82;;
59336;SDS011;45115;52.002;4.686;2022-09-23T05:22:22;16.48;;;11.40;;
59336;SDS011;45115;52.002;4.686;2022-09-23T05:24:50;15.43;;;9.35;;
59336;SDS011;45115;52.002;4.686;2022-09-23T05:27:16;16.23;;;10.23;;
59336;SDS011;45115;52.002;4.686;2022-09-23T05:29:43;19.65;;;12.77;;
59336;SDS011;45115;52.002;4.686;2022-09-23T05:32:10;16.17;;;10.23;;
59336;SDS011;45115;52.002;4.686;2022-09-23T05:34:38;13.18;;;8.77;;
59336;SDS011;45115;52.002;4.686;2022-09-23T05:37:05;18.23;;;9.80;;
59336;SDS011;45115;52.002;4.686;2022-09-23T05:39:31;16.10;;;9.15;;
59336;SDS011;45115;52.002;4.686;2022-09-23T05:41:58;16.60;;;10.95;;
59336;SDS011;45115;52.002;4.686;2022-09-23T05:44:25;14.35;;;8.10;;
59336;SDS011;45115;52.002;4.686;2022-09-23T05:46:52;13.63;;;8.18;;
59336;SDS011;45115;52.002;4.686;2022-09-23T05:49:19;12.55;;;7.75;;
59336;SDS011;45115;52.002;4.686;2022-09-23T05:51:47;12.07;;;7.57;;
59336;SDS011;45115;52.002;4.686;2022-09-23T05:54:13;15.60;;;9.25;;
59336;SDS011;45115;52.002;4.686;2022-09-23T05:56:40;15.55;;;9.98;;
59336;SDS011;45115;52.002;4.686;2022-09-23T05:59:07;16.80;;;10.27;;
59336;SDS011;45115;52.002;4.686;2022-09-23T06:01:34;12.73;;;8.50;;
59336;SDS011;45115;52.002;4.686;2022-09-23T06:04:03;14.45;;;9.60;;
59336;SDS011;45115;52.002;4.686;2022-09-23T06:06:33;13.73;;;8.60;;
59336;SDS011;45115;52.002;4.686;2022-09-23T06:09:02;15.57;;;9.43;;
59336;SDS011;45115;52.002;4.686;2022-09-23T06:11:30;15.15;;;9.30;;
59336;SDS011;45115;52.002;4.686;2022-09-23T06:13:58;16.85;;;10.45;;
59336;SDS011;45115;52.002;4.686;2022-09-23T06:16:26;14.35;;;9.52;;
59336;SDS011;45115;52.002;4.686;2022-09-23T06:18:54;12.68;;;9.20;;
59336;SDS011;45115;52.002;4.686;2022-09-23T06:21:20;16.30;;;10.40;;
59336;SDS011;45115;52.002;4.686;2022-09-23T06:23:47;13.05;;;8.60;;
59336;SDS011;45115;52.002;4.686;2022-09-23T06:26:15;15.77;;;9.63;;
59336;SDS011;45115;52.002;4.686;2022-09-23T06:28:42;15.15;;;8.73;;
59336;SDS011;45115;52.002;4.686;2022-09-23T06:31:11;15.85;;;9.00;;
59336;SDS011;45115;52.002;4.686;2022-09-23T06:33:39;16.13;;;9.82;;
59336;SDS011;45115;52.002;4.686;2022-09-23T06:36:07;17.23;;;9.75;;
59336;SDS011;45115;52.002;4.686;2022-09-23T06:38:37;13.20;;;8.02;;
59336;SDS011;45115;52.002;4.686;2022-09-23T06:41:04;16.08;;;10.02;;
59336;SDS011;45115;52.002;4.686;2022-09-23T06:43:32;15.13;;;8.80;;
59336;SDS011;45115;52.002;4.686;2022-09-23T06:45:59;16.88;;;10.18;;
59336;SDS011;45115;52.002;4.686;2022-09-23T06:48:28;13.65;;;9.00;;
59336;SDS011;45115;52.002;4.686;2022-09-23T06:50:57;14.00;;;9.52;;
59336;SDS011;45115;52.002;4.686;2022-09-23T06:53:27;15.82;;;9.50;;
59336;SDS011;45115;52.002;4.686;2022-09-23T06:55:56;15.05;;;8.65;;
59336;SDS011;45115;52.002;4.686;2022-09-23T06:58:23;13.20;;;7.82;;
59336;SDS011;45115;52.002;4.686;2022-09-23T07:00:52;12.98;;;8.10;;
59336;SDS011;45115;52.002;4.686;2022-09-23T07:03:19;15.35;;;9.27;;
59336;SDS011;45115;52.002;4.686;2022-09-23T07:05:46;15.48;;;9.60;;
59336;SDS011;45115;52.002;4.686;2022-09-23T07:08:13;16.50;;;8.90;;
59336;SDS011;45115;52.002;4.686;2022-09-23T07:10:39;14.00;;;8.77;;
59336;SDS011;45115;52.002;4.686;2022-09-23T07:13:06;14.75;;;8.38;;
59336;SDS011;45115;52.002;4.686;2022-09-23T07:15:33;14.85;;;8.85;;
59336;SDS011;45115;52.002;4.686;2022-09-23T07:18:03;13.32;;;8.20;;
59336;SDS011;45115;52.002;4.686;2022-09-23T07:20:30;15.05;;;9.02;;
59336;SDS011;45115;52.002;4.686;2022-09-23T07:22:57;15.23;;;9.00;;
59336;SDS011;45115;52.002;4.686;2022-09-23T07:25:24;15.38;;;9.23;;
59336;SDS011;45115;52.002;4.686;2022-09-23T07:27:51;15.95;;;9.05;;
59336;SDS011;45115;52.002;4.686;2022-09-23T07:30:17;16.88;;;10.23;;
59336;SDS011;45115;52.002;4.686;2022-09-23T07:32:44;12.88;;;8.77;;
59336;SDS011;45115;52.002;4.686;2022-09-23T07:35:12;14.40;;;8.88;;
59336;SDS011;45115;52.002;4.686;2022-09-23T07:37:39;16.05;;;9.05;;
59336;SDS011;45115;52.002;4.686;2022-09-23T07:40:06;13.00;;;7.47;;
59336;SDS011;45115;52.002;4.686;2022-09-23T07:42:33;11.85;;;7.63;;
59336;SDS011;45115;52.002;4.686;2022-09-23T07:45:00;14.35;;;8.82;;
59336;SDS011;45115;52.002;4.686;2022-09-23T07:47:26;14.63;;;8.55;;
59336;SDS011;45115;52.002;4.686;2022-09-23T07:49:54;15.52;;;8.88;;
59336;SDS011;45115;52.002;4.686;2022-09-23T07:52:22;16.05;;;8.45;;
59336;SDS011;45115;52.002;4.686;2022-09-23T07:54:48;12.38;;;7.65;;
59336;SDS011;45115;52.002;4.686;2022-09-23T07:57:15;16.65;;;8.52;;
59336;SDS011;45115;52.002;4.686;2022-09-23T07:59:42;15.35;;;9.18;;
59336;SDS011;45115;52.002;4.686;2022-09-23T08:02:09;13.85;;;8.35;;
59336;SDS011;45115;52.002;4.686;2022-09-23T08:04:38;14.55;;;8.77;;
59336;SDS011;45115;52.002;4.686;2022-09-23T08:07:05;14.05;;;8.10;;
59336;SDS011;45115;52.002;4.686;2022-09-23T08:09:34;14.80;;;8.85;;
59336;SDS011;45115;52.002;4.686;2022-09-23T08:12:05;14.23;;;8.60;;
59336;SDS011;45115;52.002;4.686;2022-09-23T08:14:32;15.02;;;8.63;;
59336;SDS011;45115;52.002;4.686;2022-09-23T08:16:59;13.45;;;8.35;;
59336;SDS011;45115;52.002;4.686;2022-09-23T08:19:26;13.10;;;8.13;;
59336;SDS011;45115;52.002;4.686;2022-09-23T08:21:53;16.02;;;8.27;;
59336;SDS011;45115;52.002;4.686;2022-09-23T08:24:20;15.25;;;8.10;;
59336;SDS011;45115;52.002;4.686;2022-09-23T08:26:49;14.73;;;8.32;;
59336;SDS011;45115;52.002;4.686;2022-09-23T08:29:17;13.50;;;8.00;;
59336;SDS011;45115;52.002;4.686;2022-09-23T08:31:46;18.90;;;8.10;;
59336;SDS011;45115;52.002;4.686;2022-09-23T08:34:13;14.00;;;8.10;;
59336;SDS011;45115;52.002;4.686;2022-09-23T08:36:41;14.10;;;7.78;;
59336;SDS011;45115;52.002;4.686;2022-09-23T08:39:08;14.93;;;8.40;;
59336;SDS011;45115;52.002;4.686;2022-09-23T08:41:42;14.55;;;8.60;;
59336;SDS011;45115;52.002;4.686;2022-09-23T08:44:18;15.38;;;9.25;;
59336;SDS011;45115;52.002;4.686;2022-09-23T08:46:50;14.65;;;8.45;;
59336;SDS011;45115;52.002;4.686;2022-09-23T08:49:22;12.07;;;7.50;;
59336;SDS011;45115;52.002;4.686;2022-09-23T08:51:53;13.80;;;7.50;;
59336;SDS011;45115;52.002;4.686;2022-09-23T08:54:21;14.38;;;8.00;;
59336;SDS011;45115;52.002;4.686;2022-09-23T08:56:50;12.77;;;7.60;;
59336;SDS011;45115;52.002;4.686;2022-09-23T08:59:25;11.32;;;7.07;;
59336;SDS011;45115;52.002;4.686;2022-09-23T09:02:01;12.05;;;7.38;;
59336;SDS011;45115;52.002;4.686;2022-09-23T09:04:37;11.60;;;6.93;;
59336;SDS011;45115;52.002;4.686;2022-09-23T09:07:09;14.70;;;7.90;;
59336;SDS011;45115;52.002;4.686;2022-09-23T09:09:42;13.00;;;7.72;;
59336;SDS011;45115;52.002;4.686;2022-09-23T09:14:42;12.20;;;6.97;;
59336;SDS011;45115;52.002;4.686;2022-09-23T09:17:18;14.45;;;7.63;;
59336;SDS011;45115;52.002;4.686;2022-09-23T09:19:55;14.52;;;7.53;;
59336;SDS011;45115;52.002;4.686;2022-09-23T09:22:29;13.65;;;6.88;;
59336;SDS011;45115;52.002;4.686;2022-09-23T09:25:09;13.60;;;7.97;;
59336;SDS011;45115;52.002;4.686;2022-09-23T09:27:43;12.82;;;7.22;;
59336;SDS011;45115;52.002;4.686;2022-09-23T09:30:12;10.98;;;6.57;;
59336;SDS011;45115;52.002;4.686;2022-09-23T09:32:40;12.77;;;8.20;;
59336;SDS011;45115;52.002;4.686;2022-09-23T09:35:18;12.15;;;7.28;;
59336;SDS011;45115;52.002;4.686;2022-09-23T09:37:50;12.48;;;7.38;;
59336;SDS011;45115;52.002;4.686;2022-09-23T09:40:17;12.98;;;7.53;;
59336;SDS011;45115;52.002;4.686;2022-09-23T09:42:46;13.13;;;7.05;;
59336;SDS011;45115;52.002;4.686;2022-09-23T09:45:18;14.23;;;7.30;;
59336;SDS011;45115;52.002;4.686;2022-09-23T09:47:57;12.13;;;7.05;;
59336;SDS011;45115;52.002;4.686;2022-09-23T09:50:41;11.98;;;7.30;;
59336;SDS011;45115;52.002;4.686;2022-09-23T09:53:14;14.80;;;7.22;;
59336;SDS011;45115;52.002;4.686;2022-09-23T09:55:50;13.75;;;7.22;;
59336;SDS011;45115;52.002;4.686;2022-09-23T09:58:25;11.93;;;6.30;;
59336;SDS011;45115;52.002;4.686;2022-09-23T10:00:55;12.02;;;7.28;;
59336;SDS011;45115;52.002;4.686;2022-09-23T10:03:24;13.00;;;7.60;;
59336;SDS011;45115;52.002;4.686;2022-09-23T10:05:57;12.23;;;6.15;;
59336;SDS011;45115;52.002;4.686;2022-09-23T10:08:26;15.52;;;7.15;;
59336;SDS011;45115;52.002;4.686;2022-09-23T10:11:00;10.80;;;6.90;;
59336;SDS011;45115;52.002;4.686;2022-09-23T10:13:29;12.18;;;7.75;;
59336;SDS011;45115;52.002;4.686;2022-09-23T10:15:58;10.73;;;6.80;;
59336;SDS011;45115;52.002;4.686;2022-09-23T10:18:28;12.45;;;7.30;;
59336;SDS011;45115;52.002;4.686;2022-09-23T10:21:05;12.15;;;7.30;;
59336;SDS011;45115;52.002;4.686;2022-09-23T10:23:33;12.57;;;7.30;;
59336;SDS011;45115;52.002;4.686;2022-09-23T10:26:06;13.70;;;7.32;;
59336;SDS011;45115;52.002;4.686;2022-09-23T10:28:39;10.57;;;6.95;;
59336;SDS011;45115;52.002;4.686;2022-09-23T10:31:20;10.50;;;6.90;;
59336;SDS011;45115;52.002;4.686;2022-09-23T10:33:50;16.10;;;7.63;;
59336;SDS011;45115;52.002;4.686;2022-09-23T10:36:19;11.45;;;7.03;;
59336;SDS011;45115;52.002;4.686;2022-09-23T10:38:47;15.82;;;7.68;;
59336;SDS011;45115;52.002;4.686;2022-09-23T10:41:17;11.93;;;6.95;;
59336;SDS011;45115;52.002;4.686;2022-09-23T10:44:20;13.13;;;6.97;;
59336;SDS011;45115;52.002;4.686;2022-09-23T10:47:17;12.70;;;6.60;;
59336;SDS011;45115;52.002;4.686;2022-09-23T10:49:58;11.07;;;6.25;;
59336;SDS011;45115;52.002;4.686;2022-09-23T10:52:35;12.07;;;6.57;;
59336;SDS011;45115;52.002;4.686;2022-09-23T10:55:21;13.23;;;7.25;;
59336;SDS011;45115;52.002;4.686;2022-09-23T10:58:13;10.43;;;6.72;;
59336;SDS011;45115;52.002;4.686;2022-09-23T11:01:13;13.30;;;7.38;;
59336;SDS011;45115;52.002;4.686;2022-09-23T11:06:43;12.77;;;7.07;;
59336;SDS011;45115;52.002;4.686;2022-09-23T11:09:28;14.20;;;7.82;;
59336;SDS011;45115;52.002;4.686;2022-09-23T11:12:09;13.05;;;7.10;;
59336;SDS011;45115;52.002;4.686;2022-09-23T11:14:46;12.75;;;7.00;;
59336;SDS011;45115;52.002;4.686;2022-09-23T11:17:28;13.10;;;7.20;;
59336;SDS011;45115;52.002;4.686;2022-09-23T11:20:17;10.77;;;7.25;;
59336;SDS011;45115;52.002;4.686;2022-09-23T11:22:56;12.32;;;6.72;;
59336;SDS011;45115;52.002;4.686;2022-09-23T11:25:36;10.93;;;6.45;;
59336;SDS011;45115;52.002;4.686;2022-09-23T11:28:20;11.30;;;6.35;;
59336;SDS011;45115;52.002;4.686;2022-09-23T11:31:02;11.50;;;6.57;;
59336;SDS011;45115;52.002;4.686;2022-09-23T11:33:43;11.52;;;6.65;;
59336;SDS011;45115;52.002;4.686;2022-09-23T11:36:24;10.85;;;6.78;;
59336;SDS011;45115;52.002;4.686;2022-09-23T11:38:58;10.70;;;7.22;;
59336;SDS011;45115;52.002;4.686;2022-09-23T11:41:28;11.23;;;6.63;;
59336;SDS011;45115;52.002;4.686;2022-09-23T11:43:59;12.27;;;7.07;;
59336;SDS011;45115;52.002;4.686;2022-09-23T11:46:34;12.18;;;6.55;;
59336;SDS011;45115;52.002;4.686;2022-09-23T11:49:07;10.30;;;6.55;;
59336;SDS011;45115;52.002;4.686;2022-09-23T11:51:43;12.65;;;6.78;;
59336;SDS011;45115;52.002;4.686;2022-09-23T11:54:19;11.38;;;6.82;;
59336;SDS011;45115;52.002;4.686;2022-09-23T11:56:49;9.73;;;6.25;;
59336;SDS011;45115;52.002;4.686;2022-09-23T11:59:20;12.18;;;6.43;;
59336;SDS011;45115;52.002;4.686;2022-09-23T12:01:57;11.32;;;6.90;;
59336;SDS011;45115;52.002;4.686;2022-09-23T12:04:30;13.23;;;6.55;;
59336;SDS011;45115;52.002;4.686;2022-09-23T12:07:03;11.93;;;6.88;;
59336;SDS011;45115;52.002;4.686;2022-09-23T12:09:38;13.10;;;7.35;;
59336;SDS011;45115;52.002;4.686;2022-09-23T12:12:16;10.00;;;6.55;;
59336;SDS011;45115;52.002;4.686;2022-09-23T12:14:53;11.35;;;7.10;;
59336;SDS011;45115;52.002;4.686;2022-09-23T12:23:40;11.30;;;6.75;;
59336;SDS011;45115;52.002;4.686;2022-09-23T12:26:21;12.60;;;7.15;;
59336;SDS011;45115;52.002;4.686;2022-09-23T12:28:50;12.60;;;6.97;;
59336;SDS011;45115;52.002;4.686;2022-09-23T12:31:20;11.95;;;6.25;;
59336;SDS011;45115;52.002;4.686;2022-09-23T12:33:54;13.30;;;7.15;;
59336;SDS011;45115;52.002;4.686;2022-09-23T12:36:24;11.48;;;7.13;;
59336;SDS011;45115;52.002;4.686;2022-09-23T12:39:01;11.27;;;6.90;;
59336;SDS011;45115;52.002;4.686;2022-09-23T12:41:31;11.18;;;6.95;;
59336;SDS011;45115;52.002;4.686;2022-09-23T12:49:53;9.15;;;5.40;;
59336;SDS011;45115;52.002;4.686;2022-09-23T12:52:23;9.85;;;4.97;;
59336;SDS011;45115;52.002;4.686;2022-09-23T12:54:54;11.27;;;6.28;;
59336;SDS011;45115;52.002;4.686;2022-09-23T12:57:40;10.32;;;5.38;;
59336;SDS011;45115;52.002;4.686;2022-09-23T13:00:20;9.13;;;5.72;;
59336;SDS011;45115;52.002;4.686;2022-09-23T13:02:51;9.48;;;5.45;;
59336;SDS011;45115;52.002;4.686;2022-09-23T13:05:47;9.95;;;5.70;;
59336;SDS011;45115;52.002;4.686;2022-09-23T13:08:34;9.35;;;5.75;;
59336;SDS011;45115;52.002;4.686;2022-09-23T13:11:05;10.80;;;6.35;;
59336;SDS011;45115;52.002;4.686;2022-09-23T13:13:40;14.10;;;8.40;;
59336;SDS011;45115;52.002;4.686;2022-09-23T13:16:13;12.30;;;6.87;;
59336;SDS011;45115;52.002;4.686;2022-09-23T13:18:50;16.40;;;7.10;;
59336;SDS011;45115;52.002;4.686;2022-09-23T13:24:19;13.30;;;7.30;;
59336;SDS011;45115;52.002;4.686;2022-09-23T13:27:04;15.20;;;7.45;;
59336;SDS011;45115;52.002;4.686;2022-09-23T13:29:39;13.88;;;7.70;;
59336;SDS011;45115;52.002;4.686;2022-09-23T13:32:09;13.10;;;8.05;;
59336;SDS011;45115;52.002;4.686;2022-09-23T13:34:39;13.87;;;8.07;;
59336;SDS011;45115;52.002;4.686;2022-09-23T13:37:12;13.02;;;7.72;;
59336;SDS011;45115;52.002;4.686;2022-09-23T13:39:44;10.98;;;6.85;;
59336;SDS011;45115;52.002;4.686;2022-09-23T13:42:16;11.20;;;7.40;;
59336;SDS011;45115;52.002;4.686;2022-09-23T13:44:52;12.70;;;7.80;;
59336;SDS011;45115;52.002;4.686;2022-09-23T13:47:22;12.88;;;7.32;;
59336;SDS011;45115;52.002;4.686;2022-09-23T13:49:50;13.05;;;7.93;;
59336;SDS011;45115;52.002;4.686;2022-09-23T13:52:21;13.23;;;7.15;;
59336;SDS011;45115;52.002;4.686;2022-09-23T13:54:50;14.63;;;7.45;;
59336;SDS011;45115;52.002;4.686;2022-09-23T13:57:24;15.07;;;8.07;;
59336;SDS011;45115;52.002;4.686;2022-09-23T13:59:53;18.13;;;9.88;;
59336;SDS011;45115;52.002;4.686;2022-09-23T14:02:24;13.60;;;7.38;;
59336;SDS011;45115;52.002;4.686;2022-09-23T14:04:54;13.82;;;7.10;;
59336;SDS011;45115;52.002;4.686;2022-09-23T14:07:22;13.57;;;7.18;;
59336;SDS011;45115;52.002;4.686;2022-09-23T14:09:49;10.63;;;6.82;;
59336;SDS011;45115;52.002;4.686;2022-09-23T14:12:17;13.90;;;7.55;;
59336;SDS011;45115;52.002;4.686;2022-09-23T14:14:47;12.25;;;7.13;;
59336;SDS011;45115;52.002;4.686;2022-09-23T14:17:16;11.13;;;7.30;;
59336;SDS011;45115;52.002;4.686;2022-09-23T14:19:45;16.42;;;7.45;;
59336;SDS011;45115;52.002;4.686;2022-09-23T14:22:20;13.82;;;7.43;;
59336;SDS011;45115;52.002;4.686;2022-09-23T14:24:48;14.27;;;7.82;;
59336;SDS011;45115;52.002;4.686;2022-09-23T14:27:17;13.25;;;7.47;;
59336;SDS011;45115;52.002;4.686;2022-09-23T14:29:51;12.48;;;7.38;;
59336;SDS011;45115;52.002;4.686;2022-09-23T14:32:19;12.38;;;8.35;;
59336;SDS011;45115;52.002;4.686;2022-09-23T14:34:49;14.70;;;8.15;;
59336;SDS011;45115;52.002;4.686;2022-09-23T14:37:24;14.35;;;8.25;;
59336;SDS011;45115;52.002;4.686;2022-09-23T14:40:14;13.15;;;7.93;;
59336;SDS011;45115;52.002;4.686;2022-09-23T14:42:43;16.73;;;8.18;;
59336;SDS011;45115;52.002;4.686;2022-09-23T14:45:16;13.57;;;8.38;;
59336;SDS011;45115;52.002;4.686;2022-09-23T14:47:46;15.13;;;8.45;;
59336;SDS011;45115;52.002;4.686;2022-09-23T14:50:15;16.38;;;8.43;;
59336;SDS011;45115;52.002;4.686;2022-09-23T14:53:05;16.83;;;10.02;;
59336;SDS011;45115;52.002;4.686;2022-09-23T14:56:06;16.23;;;9.80;;
59336;SDS011;45115;52.002;4.686;2022-09-23T14:58:48;18.33;;;10.40;;
59336;SDS011;45115;52.002;4.686;2022-09-23T15:04:10;18.52;;;10.40;;
59336;SDS011;45115;52.002;4.686;2022-09-23T15:06:39;18.83;;;11.48;;
59336;SDS011;45115;52.002;4.686;2022-09-23T15:09:09;18.52;;;11.55;;
59336;SDS011;45115;52.002;4.686;2022-09-23T15:11:44;17.90;;;9.93;;
59336;SDS011;45115;52.002;4.686;2022-09-23T15:14:11;19.35;;;12.20;;
59336;SDS011;45115;52.002;4.686;2022-09-23T15:16:39;18.05;;;11.52;;
59336;SDS011;45115;52.002;4.686;2022-09-23T15:19:10;18.75;;;11.98;;
59336;SDS011;45115;52.002;4.686;2022-09-23T15:21:42;19.77;;;12.45;;
59336;SDS011;45115;52.002;4.686;2022-09-23T15:27:00;20.42;;;12.85;;
59336;SDS011;45115;52.002;4.686;2022-09-23T15:29:27;21.33;;;14.75;;